createdAt,value
2023-03-12T00:01:59.726Z,17.15
2023-03-12T00:04:27.254Z,17.13
2023-03-12T00:06:54.386Z,17.12
2023-03-12T00:09:20.955Z,17.11
2023-03-12T00:11:47.540Z,17.08
2023-03-12T00:14:14.122Z,17.06
2023-03-12T00:16:40.818Z,17.04
2023-03-12T00:19:07.412Z,17.03
2023-03-12T00:21:33.994Z,17.01
2023-03-12T00:24:00.513Z,17.00
2023-03-12T00:26:27.047Z,16.98
2023-03-12T00:28:53.816Z,16.96
2023-03-12T00:31:27.551Z,16.94
2023-03-12T00:33:54.571Z,16.93
2023-03-12T00:36:24.854Z,16.95
2023-03-12T00:38:52.299Z,16.92
2023-03-12T00:41:21.854Z,16.89
2023-03-12T00:43:49.258Z,16.87
2023-03-12T00:46:15.849Z,16.86
2023-03-12T00:48:42.422Z,16.85
2023-03-12T00:51:09.469Z,16.82
2023-03-12T00:53:36.161Z,16.80
2023-03-12T00:56:04.126Z,16.77
2023-03-12T00:58:31.020Z,16.76
2023-03-12T01:00:57.764Z,16.73
2023-03-12T01:03:24.565Z,16.72
2023-03-12T01:05:54.604Z,16.69
2023-03-12T01:08:22.033Z,16.68
2023-03-12T01:10:48.585Z,16.68
2023-03-12T01:13:15.218Z,16.66
2023-03-12T01:15:41.753Z,16.64
2023-03-12T01:18:08.698Z,16.61
2023-03-12T01:20:35.380Z,16.61
2023-03-12T01:23:01.917Z,16.60
2023-03-12T01:25:28.461Z,16.58
2023-03-12T01:27:55.115Z,16.57
2023-03-12T01:30:21.651Z,16.56
2023-03-12T01:32:48.311Z,16.54
2023-03-12T01:35:14.878Z,16.52
2023-03-12T01:37:41.383Z,16.52
2023-03-12T01:40:08.367Z,16.49
2023-03-12T01:42:34.869Z,16.50
2023-03-12T01:45:03.252Z,16.48
2023-03-12T01:47:33.301Z,16.46
2023-03-12T01:50:01.322Z,16.46
2023-03-12T01:52:32.001Z,16.44
2023-03-12T01:55:07.357Z,16.42
2023-03-12T01:57:43.111Z,16.40
2023-03-12T02:00:13.821Z,16.40
2023-03-12T02:02:41.392Z,16.39
2023-03-12T02:05:17.569Z,16.37
2023-03-12T02:07:44.108Z,16.37
2023-03-12T02:10:11.721Z,16.36
2023-03-12T02:12:38.326Z,16.34
2023-03-12T02:15:05.766Z,16.33
2023-03-12T02:17:32.586Z,16.32
2023-03-12T02:20:25.491Z,16.28
2023-03-12T02:23:03.138Z,16.29
2023-03-12T02:25:36.956Z,16.28
2023-03-12T02:28:05.112Z,16.26
2023-03-12T02:30:32.014Z,16.28
2023-03-12T02:33:01.404Z,16.26
2023-03-12T02:35:27.960Z,16.25
2023-03-12T02:37:56.253Z,16.24
2023-03-12T02:40:29.267Z,16.22
2023-03-12T02:42:57.145Z,16.21
2023-03-12T02:45:25.776Z,16.20
2023-03-12T02:47:52.727Z,16.19
2023-03-12T02:50:19.399Z,16.15
2023-03-12T02:52:46.039Z,16.07
2023-03-12T02:55:12.642Z,16.09
2023-03-12T02:57:39.279Z,16.14
2023-03-12T03:00:11.966Z,16.20
2023-03-12T03:02:39.885Z,16.27
2023-03-12T03:05:06.994Z,16.35
2023-03-12T03:07:33.626Z,16.43
2023-03-12T03:10:04.457Z,16.50
2023-03-12T03:12:31.839Z,16.56
2023-03-12T03:14:58.517Z,16.60
2023-03-12T03:17:25.476Z,16.66
2023-03-12T03:19:52.437Z,16.67
2023-03-12T03:22:20.495Z,16.69
2023-03-12T03:24:47.486Z,16.71
2023-03-12T03:27:14.240Z,16.72
2023-03-12T03:29:41.105Z,16.71
2023-03-12T03:32:07.719Z,16.70
2023-03-12T03:34:34.330Z,16.70
2023-03-12T03:37:00.847Z,16.70
2023-03-12T03:39:29.071Z,16.70
2023-03-12T03:41:55.788Z,16.70
2023-03-12T03:44:23.093Z,16.69
2023-03-12T03:46:50.008Z,16.68
2023-03-12T03:49:16.967Z,16.68
2023-03-12T03:51:43.843Z,16.64
2023-03-12T03:54:11.315Z,16.63
2023-03-12T03:56:37.851Z,16.60
2023-03-12T03:59:04.787Z,16.58
2023-03-12T04:01:31.482Z,16.52
2023-03-12T04:03:59.186Z,16.48
2023-03-12T04:06:26.381Z,16.41
2023-03-12T04:08:53.048Z,16.35
2023-03-12T04:11:21.180Z,16.27
2023-03-12T04:13:48.485Z,16.18
2023-03-12T04:16:16.197Z,16.12
2023-03-12T04:18:43.211Z,16.04
2023-03-12T04:21:12.016Z,15.95
2023-03-12T04:23:39.416Z,15.90
2023-03-12T04:26:06.700Z,15.80
2023-03-12T04:28:34.396Z,15.73
2023-03-12T04:31:06.948Z,15.66
2023-03-12T04:33:36.376Z,15.61
2023-03-12T04:36:03.035Z,15.53
2023-03-12T04:38:30.741Z,15.52
2023-03-12T04:41:04.821Z,15.49
2023-03-12T04:43:32.363Z,15.59
2023-03-12T04:45:59.106Z,15.73
2023-03-12T04:48:26.190Z,15.86
2023-03-12T04:50:53.281Z,15.97
2023-03-12T04:53:20.600Z,16.10
2023-03-12T04:55:47.597Z,16.21
2023-03-12T04:58:14.294Z,16.28
2023-03-12T05:00:41.443Z,16.37
2023-03-12T05:03:08.936Z,16.44
2023-03-12T05:05:35.982Z,16.49
2023-03-12T05:08:03.411Z,16.52
2023-03-12T05:10:30.036Z,16.52
2023-03-12T05:12:56.651Z,16.52
2023-03-12T05:15:23.166Z,16.51
2023-03-12T05:17:49.718Z,16.48
2023-03-12T05:20:17.699Z,16.45
2023-03-12T05:22:44.498Z,16.41
2023-03-12T05:25:11.490Z,16.37
2023-03-12T05:27:38.414Z,16.29
2023-03-12T05:30:06.487Z,16.22
2023-03-12T05:32:33.381Z,16.12
2023-03-12T05:34:59.896Z,16.04
2023-03-12T05:37:26.350Z,15.95
2023-03-12T05:39:54.642Z,15.87
2023-03-12T05:42:21.179Z,15.79
2023-03-12T05:44:47.718Z,15.71
2023-03-12T05:47:14.198Z,15.64
2023-03-12T05:49:40.833Z,15.58
2023-03-12T05:52:07.422Z,15.52
2023-03-12T05:54:33.968Z,15.46
2023-03-12T05:57:00.629Z,15.42
2023-03-12T05:59:27.228Z,15.36
2023-03-12T06:01:53.902Z,15.31
2023-03-12T06:04:20.468Z,15.27
2023-03-12T06:06:47.523Z,15.24
2023-03-12T06:09:14.079Z,15.23
2023-03-12T06:11:40.637Z,15.20
2023-03-12T06:14:07.150Z,15.18
2023-03-12T06:16:33.801Z,15.13
2023-03-12T06:19:02.501Z,15.15
2023-03-12T06:21:31.570Z,15.14
2023-03-12T06:23:58.659Z,15.20
2023-03-12T06:26:25.973Z,15.34
2023-03-12T06:28:53.259Z,15.49
2023-03-12T06:31:21.259Z,15.64
2023-03-12T06:33:47.845Z,15.77
2023-03-12T06:36:14.454Z,15.89
2023-03-12T06:38:41.090Z,15.98
2023-03-12T06:41:14.157Z,16.07
2023-03-12T06:43:41.636Z,16.15
2023-03-12T06:46:12.210Z,16.26
2023-03-12T06:48:41.265Z,16.39
2023-03-12T06:51:13.195Z,16.49
2023-03-12T06:53:42.260Z,16.59
2023-03-12T06:56:09.910Z,16.68
2023-03-12T06:58:36.790Z,16.76
2023-03-12T07:01:04.220Z,16.84
2023-03-12T07:03:31.233Z,16.91
2023-03-12T07:05:58.444Z,16.99
2023-03-12T07:08:26.571Z,17.05
2023-03-12T07:10:53.071Z,17.11
2023-03-12T07:13:19.641Z,17.16
2023-03-12T07:15:46.551Z,17.20
2023-03-12T07:18:13.701Z,17.25
2023-03-12T07:20:42.260Z,17.28
2023-03-12T07:23:09.647Z,17.35
2023-03-12T07:25:38.558Z,17.39
2023-03-12T07:28:05.442Z,17.43
2023-03-12T07:30:33.665Z,17.46
2023-03-12T07:33:12.021Z,17.49
2023-03-12T07:35:39.764Z,17.52
2023-03-12T07:38:07.301Z,17.56
2023-03-12T07:40:34.702Z,17.58
2023-03-12T07:43:02.220Z,17.61
2023-03-12T07:45:28.838Z,17.63
2023-03-12T07:47:55.512Z,17.65
2023-03-12T07:50:22.171Z,17.67
2023-03-12T07:52:49.264Z,17.70
2023-03-12T07:55:16.476Z,17.72
2023-03-12T07:57:43.109Z,17.73
2023-03-12T08:00:10.807Z,17.72
2023-03-12T08:02:37.727Z,17.72
2023-03-12T08:05:04.979Z,17.67
2023-03-12T08:07:32.590Z,17.61
2023-03-12T08:10:00.119Z,17.56
2023-03-12T08:12:27.250Z,17.51
2023-03-12T08:14:53.941Z,17.45
2023-03-12T08:17:20.588Z,17.38
2023-03-12T08:19:47.191Z,17.33
2023-03-12T08:22:13.738Z,17.25
2023-03-12T08:24:40.500Z,17.23
2023-03-12T08:27:07.066Z,17.19
2023-03-12T08:29:33.611Z,17.15
2023-03-12T08:32:05.056Z,17.11
2023-03-12T08:34:33.409Z,17.07
2023-03-12T08:37:00.053Z,17.03
2023-03-12T08:39:26.648Z,16.99
2023-03-12T08:41:55.356Z,16.96
2023-03-12T08:44:23.312Z,16.93
2023-03-12T08:46:50.408Z,16.88
2023-03-12T08:49:17.392Z,16.86
2023-03-12T08:51:43.982Z,16.81
2023-03-12T08:54:10.626Z,16.79
2023-03-12T08:56:41.782Z,16.75
2023-03-12T08:59:12.060Z,16.72
2023-03-12T09:01:41.782Z,16.71
2023-03-12T09:04:10.138Z,16.71
2023-03-12T09:06:38.372Z,16.74
2023-03-12T09:09:05.738Z,16.75
2023-03-12T09:11:34.122Z,16.81
2023-03-12T09:14:46.261Z,16.88
2023-03-12T09:16:48.323Z,17.00
2023-03-12T09:19:15.805Z,17.07
2023-03-12T09:21:42.496Z,17.14
2023-03-12T09:24:10.024Z,17.22
2023-03-12T09:26:36.537Z,17.28
2023-03-12T09:29:03.304Z,17.36
2023-03-12T09:31:32.956Z,17.40
2023-03-12T09:33:59.517Z,17.45
2023-03-12T09:36:26.135Z,17.46
2023-03-12T09:38:52.761Z,17.48
2023-03-12T09:41:27.385Z,17.45
2023-03-12T09:44:02.158Z,17.41
2023-03-12T09:46:35.298Z,17.36
2023-03-12T09:49:10.803Z,17.32
2023-03-12T09:51:45.863Z,17.25
2023-03-12T09:54:36.651Z,17.20
2023-03-12T09:57:09.404Z,17.18
2023-03-12T09:59:37.015Z,17.17
2023-03-12T10:02:18.388Z,17.15
2023-03-12T10:04:59.855Z,17.13
2023-03-12T10:07:31.450Z,17.11
2023-03-12T10:10:30.508Z,17.08
2023-03-12T10:13:25.354Z,17.06
2023-03-12T10:16:22.088Z,17.02
2023-03-12T10:19:10.640Z,17.01
2023-03-12T10:21:58.879Z,17.00
2023-03-12T10:24:51.529Z,16.98
2023-03-12T10:27:18.953Z,16.99
2023-03-12T10:29:49.173Z,16.97
2023-03-12T10:32:21.993Z,16.97
2023-03-12T10:35:13.072Z,16.93
2023-03-12T10:37:44.922Z,16.94
2023-03-12T10:40:17.737Z,17.01
2023-03-12T10:42:44.396Z,17.12
2023-03-12T10:45:10.865Z,17.22
2023-03-12T10:47:44.725Z,17.33
2023-03-12T10:50:29.733Z,17.42
2023-03-12T10:53:22.566Z,17.50
2023-03-12T10:56:05.637Z,17.58
2023-03-12T10:58:42.266Z,17.65
2023-03-12T11:01:14.822Z,17.71
2023-03-12T11:03:42.778Z,17.77
2023-03-12T11:06:15.537Z,17.81
2023-03-12T11:08:43.098Z,17.86
2023-03-12T11:11:10.390Z,17.90
2023-03-12T11:13:41.821Z,17.94
2023-03-12T11:16:17.642Z,17.97
2023-03-12T11:19:02.084Z,18.00
2023-03-12T11:21:29.934Z,18.04
2023-03-12T11:23:56.405Z,18.05
2023-03-12T11:26:36.648Z,18.10
2023-03-12T11:29:17.368Z,18.19
2023-03-12T11:31:57.821Z,18.30
2023-03-12T11:34:31.046Z,18.43
2023-03-12T11:37:26.542Z,18.53
2023-03-12T11:40:30.539Z,18.66
2023-03-12T11:43:41.732Z,18.80
2023-03-12T11:46:18.382Z,18.93
2023-03-12T11:49:03.517Z,19.01
2023-03-12T11:51:52.189Z,19.10
2023-03-12T11:54:38.631Z,19.18
2023-03-12T11:57:26.531Z,19.27
2023-03-12T12:00:17.322Z,19.35
2023-03-12T12:02:56.092Z,19.43
2023-03-12T12:05:27.533Z,19.52
2023-03-12T12:08:03.148Z,19.59
2023-03-12T12:10:47.233Z,19.66
2023-03-12T12:13:41.626Z,19.75
2023-03-12T12:16:42.538Z,19.83
2023-03-12T12:19:28.048Z,19.90
2023-03-12T12:22:37.833Z,19.99
2023-03-12T12:25:38.936Z,20.05
2023-03-12T12:28:15.593Z,20.12
2023-03-12T12:31:13.666Z,20.20
2023-03-12T12:33:50.522Z,20.29
2023-03-12T12:36:18.380Z,20.38
2023-03-12T12:39:11.414Z,20.48
2023-03-12T12:41:43.064Z,20.60
2023-03-12T12:44:36.304Z,20.70
2023-03-12T12:47:06.843Z,20.79
2023-03-12T12:49:51.037Z,20.78
2023-03-12T12:52:22.069Z,20.78
2023-03-12T12:55:04.614Z,20.76
2023-03-12T12:57:36.176Z,20.74
2023-03-12T13:00:22.093Z,20.73
2023-03-12T13:02:50.451Z,20.72
2023-03-12T13:05:45.902Z,20.65
2023-03-12T13:08:34.504Z,20.60
2023-03-12T13:11:22.227Z,20.53
2023-03-12T13:14:11.372Z,20.42
2023-03-12T13:16:40.088Z,20.39
2023-03-12T13:19:27.504Z,20.34
2023-03-12T13:22:26.319Z,20.36
2023-03-12T13:25:14.391Z,20.41
2023-03-12T13:27:44.465Z,20.45
2023-03-12T13:30:33.000Z,20.48
2023-03-12T13:33:04.114Z,20.53
2023-03-12T13:35:36.484Z,20.57
2023-03-12T13:38:06.708Z,20.60
2023-03-12T13:40:36.313Z,20.59
2023-03-12T13:43:14.564Z,20.59
2023-03-12T13:45:47.068Z,20.59
2023-03-12T13:48:20.674Z,20.59
2023-03-12T13:50:55.425Z,20.58
2023-03-12T13:53:32.302Z,20.61
2023-03-12T13:56:10.602Z,20.58
2023-03-12T13:59:00.152Z,20.55
2023-03-12T14:01:36.118Z,20.55
2023-03-12T14:04:08.793Z,20.54
2023-03-12T14:06:56.238Z,20.51
2023-03-12T14:09:41.503Z,20.50
2023-03-12T14:12:20.312Z,20.49
2023-03-12T14:15:18.921Z,20.44
2023-03-12T14:17:45.978Z,20.45
2023-03-12T14:20:21.410Z,20.43
2023-03-12T14:23:12.808Z,20.42
2023-03-12T14:25:43.634Z,20.43
2023-03-12T14:28:20.983Z,20.41
2023-03-12T14:31:01.079Z,20.40
2023-03-12T14:33:33.458Z,20.39
2023-03-12T14:36:12.225Z,20.37
2023-03-12T14:38:44.613Z,20.34
2023-03-12T14:41:19.915Z,20.30
2023-03-12T14:43:46.573Z,20.28
2023-03-12T14:46:20.025Z,20.26
2023-03-12T14:48:51.760Z,20.23
2023-03-12T14:51:24.615Z,20.20
2023-03-12T14:53:52.493Z,20.20
2023-03-12T14:56:30.407Z,20.20
2023-03-12T14:58:58.972Z,20.24
2023-03-12T15:01:32.419Z,20.27
2023-03-12T15:04:03.618Z,20.30
2023-03-12T15:06:36.529Z,20.34
2023-03-12T15:09:05.773Z,20.40
2023-03-12T15:11:35.869Z,20.44
2023-03-12T15:14:14.427Z,20.47
2023-03-12T15:16:43.381Z,20.49
2023-03-12T15:19:14.027Z,20.49
2023-03-12T15:21:40.703Z,20.47
2023-03-12T15:24:11.648Z,20.46
2023-03-12T15:26:38.260Z,20.44
2023-03-12T15:29:13.946Z,20.42
2023-03-12T15:31:45.987Z,20.44
2023-03-12T15:34:18.420Z,20.44
2023-03-12T15:36:48.091Z,20.42
2023-03-12T15:39:31.004Z,20.40
2023-03-12T15:42:07.625Z,20.43
2023-03-12T15:44:47.950Z,20.46
2023-03-12T15:47:18.734Z,20.52
2023-03-12T15:50:09.940Z,20.56
2023-03-12T15:52:37.859Z,20.63
2023-03-12T15:55:12.923Z,20.68
2023-03-12T15:57:49.965Z,20.74
2023-03-12T16:00:21.801Z,20.81
2023-03-12T16:03:03.978Z,20.85
2023-03-12T16:05:34.066Z,20.92
2023-03-12T16:08:31.672Z,20.94
2023-03-12T16:10:58.212Z,21.00
2023-03-12T16:13:31.177Z,21.03
2023-03-12T16:15:58.593Z,21.08
2023-03-12T16:18:25.285Z,21.13
2023-03-12T16:20:52.992Z,21.20
2023-03-12T16:23:19.648Z,21.28
2023-03-12T16:25:49.197Z,21.32
2023-03-12T16:28:18.611Z,21.38
2023-03-12T16:30:45.313Z,21.43
2023-03-12T16:33:14.654Z,21.48
2023-03-12T16:35:41.278Z,21.55
2023-03-12T16:38:10.600Z,21.61
2023-03-12T16:40:39.760Z,21.68
2023-03-12T16:43:14.651Z,21.76
2023-03-12T16:45:46.825Z,21.84
2023-03-12T16:48:21.652Z,21.93
2023-03-12T16:50:51.240Z,22.01
2023-03-12T16:53:18.814Z,22.04
2023-03-12T16:55:52.066Z,22.04
2023-03-12T16:58:20.548Z,22.01
2023-03-12T17:00:48.108Z,21.97
2023-03-12T17:03:49.207Z,21.89
2023-03-12T17:06:22.016Z,21.79
2023-03-12T17:08:48.654Z,21.71
2023-03-12T17:11:24.810Z,21.59
2023-03-12T17:13:58.634Z,21.48
2023-03-12T17:16:25.279Z,21.40
2023-03-12T17:18:51.886Z,21.33
2023-03-12T17:21:20.144Z,21.25
2023-03-12T17:23:50.191Z,21.17
2023-03-12T17:26:18.594Z,21.10
2023-03-12T17:28:45.164Z,21.04
2023-03-12T17:31:11.740Z,20.98
2023-03-12T17:33:38.501Z,20.92
2023-03-12T17:36:08.001Z,20.88
2023-03-12T17:38:35.554Z,20.84
2023-03-12T17:41:02.532Z,20.78
2023-03-12T17:43:29.575Z,20.79
2023-03-12T17:45:56.165Z,20.71
2023-03-12T17:48:25.735Z,20.65
2023-03-12T17:50:52.299Z,20.59
2023-03-12T17:53:19.976Z,20.55
2023-03-12T17:55:47.578Z,20.54
2023-03-12T17:58:14.057Z,20.51
2023-03-12T18:00:40.595Z,20.49
2023-03-12T18:03:07.175Z,20.47
2023-03-12T18:05:33.698Z,20.45
2023-03-12T18:08:00.196Z,20.41
2023-03-12T18:10:26.726Z,20.36
2023-03-12T18:12:53.295Z,20.34
2023-03-12T18:15:19.857Z,20.39
2023-03-12T18:17:49.655Z,20.44
2023-03-12T18:20:25.881Z,20.50
2023-03-12T18:23:01.892Z,20.56
2023-03-12T18:25:28.501Z,20.60
2023-03-12T18:27:56.646Z,20.65
2023-03-12T18:30:23.211Z,20.68
2023-03-12T18:32:49.835Z,20.70
2023-03-12T18:35:16.561Z,20.75
2023-03-12T18:37:45.437Z,20.74
2023-03-12T18:40:12.624Z,20.76
2023-03-12T18:42:46.489Z,20.75
2023-03-12T18:45:13.227Z,20.73
2023-03-12T18:47:39.779Z,20.70
2023-03-12T18:50:08.012Z,20.67
2023-03-12T18:52:34.833Z,20.66
2023-03-12T18:55:01.639Z,20.63
2023-03-12T18:57:28.446Z,20.61
2023-03-12T18:59:55.215Z,20.62
2023-03-12T19:02:22.280Z,20.58
2023-03-12T19:04:49.369Z,20.58
2023-03-12T19:07:17.851Z,20.59
2023-03-12T19:09:44.340Z,20.59
2023-03-12T19:12:10.869Z,20.58
2023-03-12T19:14:37.698Z,20.59
2023-03-12T19:17:04.477Z,20.58
2023-03-12T19:19:30.956Z,20.49
2023-03-12T19:21:57.497Z,20.43
2023-03-12T19:24:24.223Z,20.35
2023-03-12T19:26:50.785Z,20.32
2023-03-12T19:29:17.334Z,20.27
2023-03-12T19:31:43.903Z,20.24
2023-03-12T19:34:10.475Z,20.19
2023-03-12T19:36:36.959Z,20.17
2023-03-12T19:39:06.680Z,20.14
2023-03-12T19:41:40.653Z,20.07
2023-03-12T19:44:07.269Z,20.04
2023-03-12T19:46:33.845Z,20.00
2023-03-12T19:49:00.406Z,19.91
2023-03-12T19:51:27.066Z,19.82
2023-03-12T19:53:53.591Z,19.77
2023-03-12T19:56:21.066Z,19.70
2023-03-12T19:58:48.265Z,19.64
2023-03-12T20:01:14.789Z,19.57
2023-03-12T20:03:43.897Z,19.52
2023-03-12T20:06:11.654Z,19.47
2023-03-12T20:08:38.497Z,19.43
2023-03-12T20:11:07.848Z,19.39
2023-03-12T20:13:35.398Z,19.34
2023-03-12T20:16:02.382Z,19.29
2023-03-12T20:18:28.948Z,19.24
2023-03-12T20:20:55.608Z,19.19
2023-03-12T20:23:22.198Z,19.16
2023-03-12T20:25:50.175Z,19.11
2023-03-12T20:28:17.138Z,19.08
2023-03-12T20:30:44.154Z,19.04
2023-03-12T20:33:10.717Z,18.99
2023-03-12T20:35:37.892Z,18.96
2023-03-12T20:38:04.527Z,18.93
2023-03-12T20:40:31.298Z,18.88
2023-03-12T20:42:57.869Z,18.84
2023-03-12T20:45:24.364Z,18.82
2023-03-12T20:47:51.108Z,18.78
2023-03-12T20:50:17.784Z,18.74
2023-03-12T20:52:45.027Z,18.70
2023-03-12T20:55:11.630Z,18.67
2023-03-12T20:57:38.188Z,18.64
2023-03-12T21:00:05.540Z,18.60
2023-03-12T21:02:32.193Z,18.58
2023-03-12T21:04:58.729Z,18.55
2023-03-12T21:07:25.357Z,18.53
2023-03-12T21:09:51.868Z,18.55
2023-03-12T21:12:18.555Z,18.53
2023-03-12T21:14:45.132Z,18.47
2023-03-12T21:17:13.739Z,18.46
2023-03-12T21:19:41.691Z,18.44
2023-03-12T21:22:08.789Z,18.41
2023-03-12T21:24:35.955Z,18.38
2023-03-12T21:27:02.553Z,18.34
2023-03-12T21:29:29.132Z,18.32
2023-03-12T21:31:55.746Z,18.29
2023-03-12T21:34:23.200Z,18.28
2023-03-12T21:36:49.724Z,18.25
2023-03-12T21:39:17.201Z,18.23
2023-03-12T21:41:43.742Z,18.20
2023-03-12T21:44:10.280Z,18.17
2023-03-12T21:46:36.973Z,18.16
2023-03-12T21:49:03.700Z,18.14
2023-03-12T21:51:30.312Z,18.12
2023-03-12T21:53:58.132Z,18.10
2023-03-12T21:56:28.047Z,18.09
2023-03-12T21:58:56.947Z,18.06
2023-03-12T22:01:24.691Z,18.03
2023-03-12T22:03:51.547Z,18.04
2023-03-12T22:06:18.115Z,18.02
2023-03-12T22:08:49.209Z,18.02
2023-03-12T22:11:16.665Z,18.01
2023-03-12T22:13:43.321Z,17.99
2023-03-12T22:16:12.903Z,17.97
2023-03-12T22:18:41.980Z,17.97
2023-03-12T22:21:14.743Z,17.99
2023-03-12T22:23:41.247Z,17.97
2023-03-12T22:26:08.068Z,17.96
2023-03-12T22:28:35.486Z,17.92
2023-03-12T22:31:07.553Z,17.88
2023-03-12T22:33:37.066Z,17.89
2023-03-12T22:36:08.513Z,17.90
2023-03-12T22:38:36.714Z,17.89
2023-03-12T22:41:27.021Z,17.84
2023-03-12T22:43:56.132Z,17.86
2023-03-12T22:46:24.728Z,17.85
2023-03-12T22:48:57.369Z,17.86
2023-03-12T22:51:24.435Z,17.86
2023-03-12T22:53:51.399Z,17.86
2023-03-12T22:56:18.134Z,17.83
2023-03-12T22:58:44.909Z,17.84
2023-03-12T23:01:14.091Z,17.86
2023-03-12T23:03:42.572Z,17.85
2023-03-12T23:06:15.342Z,17.84
2023-03-12T23:08:42.216Z,17.85
2023-03-12T23:11:10.304Z,17.84
2023-03-12T23:13:39.098Z,17.86
2023-03-12T23:16:11.619Z,17.86
2023-03-12T23:18:38.482Z,17.83
2023-03-12T23:21:08.041Z,17.82
2023-03-12T23:23:35.595Z,17.83
2023-03-12T23:26:03.260Z,17.83
2023-03-12T23:28:32.171Z,17.82
2023-03-12T23:31:07.510Z,17.82
2023-03-12T23:33:34.969Z,17.82
2023-03-12T23:36:07.400Z,17.81
2023-03-12T23:38:37.509Z,17.80
2023-03-12T23:41:10.250Z,17.80
2023-03-12T23:43:36.738Z,17.80
2023-03-12T23:46:05.164Z,17.80
2023-03-12T23:48:33.200Z,17.79
2023-03-12T23:51:14.391Z,17.77
2023-03-12T23:53:43.005Z,17.79
2023-03-12T23:56:12.666Z,17.78
2023-03-12T23:58:39.213Z,17.78
